Flight Track Log - Related Links

Times and Time Zones

All times are in EDT time to prevent confusion due to time zone crossing. See the LAN642 flight status page for this flight to view local times or setup timezone preferences in your user account.

Time Position Orientation Groundspeed Altitude Reporting Facility
EDT Latitude Longitude Course Direction KTS MPH feet Rate Location/Type
Wed 02:27:39 PM -33.4037 -70.7855 179° South 159 183 2,100  Level FlightAware ADS-B
Wed 02:27:59 PM -33.4191 -70.7850 178° South 179 206 2,500 1,077 Climbing FlightAware ADS-B
Wed 02:28:18 PM -33.4313 -70.7843 177° South 204 235 2,800 923 Climbing FlightAware ADS-B
Wed 02:28:38 PM -33.4564 -70.7827 177° South 237 273 3,100 1,463 Climbing FlightAware ADS-B
Wed 02:28:59 PM -33.4816 -70.7810 177° South 252 290 3,800 3,073 Climbing FlightAware ADS-B
Wed 02:29:19 PM -33.5020 -70.7796 180° South 235 270 5,200 3,931 Climbing FlightAware ADS-B
Wed 02:29:28 PM -33.5130 -70.7811 195° South 231 266 5,700 3,000 Climbing FlightAware ADS-B
Wed 02:29:37 PM -33.5215 -70.7858 214° Southwest 232 267 6,100 2,211 Climbing FlightAware ADS-B
Wed 02:29:47 PM -33.5299 -70.7954 234° Southwest 239 275 6,400 1,364 Climbing FlightAware ADS-B
Wed 02:29:59 PM -33.5352 -70.8097 254° West 249 287 6,600 1,714 Climbing FlightAware ADS-B
Wed 02:30:08 PM -33.5360 -70.8222 274° West 254 292 7,000 2,400 Climbing FlightAware ADS-B
Wed 02:30:19 PM -33.5331 -70.8376 290° West 253 291 7,400 2,286 Climbing FlightAware ADS-B
Wed 02:30:29 PM -33.5299 -70.8449 310° West 256 295 7,800 2,526 Climbing FlightAware ADS-B
Wed 02:30:38 PM -33.5186 -70.8578 325° Northwest 257 296 8,200 2,357 Climbing FlightAware ADS-B
Wed 02:30:57 PM -33.5017 -70.8732 322° Northwest 262 302 8,900 1,610 Climbing FlightAware ADS-B
Wed 02:31:19 PM -33.4811 -70.8914 324° Northwest 287 330 9,300 1,350 Climbing FlightAware ADS-B
Wed 02:31:37 PM -33.4595 -70.9102 324° Northwest 298 343 9,800 1,714 Climbing FlightAware ADS-B
Wed 02:32:08 PM -33.4226 -70.9414 325° Northwest 320 368 10,700 1,258 Climbing FlightAware ADS-B
Wed 02:32:39 PM -33.3826 -70.9743 325° Northwest 351 404 11,100 1,029 Climbing FlightAware ADS-B
Wed 02:33:18 PM -33.3276 -71.0192 326° Northwest 379 436 11,900 1,543 Climbing FlightAware ADS-B
Wed 02:33:49 PM -33.2875 -71.0519 326° Northwest 388 447 12,900 2,057 Climbing FlightAware ADS-B
Wed 02:34:28 PM -33.2251 -71.1027 326° Northwest 393 452 14,300 2,057 Climbing FlightAware ADS-B
Wed 02:34:59 PM -33.1800 -71.1394 326° Northwest 399 459 15,300 1,975 Climbing FlightAware ADS-B
Wed 02:35:47 PM -33.1016 -71.1988 340° North 409 471 16,900 2,100 Climbing FlightAware ADS-B
Wed 02:36:19 PM -33.0445 -71.2140 349° North 410 472 18,100 2,083 Climbing FlightAware ADS-B
Wed 02:36:59 PM -32.9686 -71.2314 349° North 413 475 19,400 1,899 Climbing FlightAware ADS-B
Wed 02:37:38 PM -32.8964 -71.2483 349° North 417 480 20,600 1,629 Climbing FlightAware ADS-B
Wed 02:38:09 PM -32.8347 -71.2628 349° North 423 487 21,300 1,279 Climbing FlightAware ADS-B
Wed 02:38:39 PM -32.7752 -71.2767 349° North 432 497 21,900 1,352 Climbing FlightAware ADS-B
Wed 02:39:20 PM -32.6956 -71.2952 349° North 437 503 22,900 1,437 Climbing FlightAware ADS-B
Wed 02:39:50 PM -32.6418 -71.3079 349° North 441 507 23,600 1,385 Climbing FlightAware ADS-B
Wed 02:40:25 PM -32.5709 -71.3245 349° North 446 513 24,400 1,304 Climbing FlightAware ADS-B
Wed 02:40:59 PM -32.4970 -71.3418 349° North 447 514 25,100 1,135 Climbing FlightAware ADS-B
Wed 02:41:39 PM -32.4201 -71.3597 349° North 456 525 25,800 1,050 Climbing FlightAware ADS-B
Wed 02:42:19 PM -32.3356 -71.3794 349° North 461 531 26,500 1,037 Climbing FlightAware ADS-B
Wed 02:43:00 PM -32.2507 -71.3993 349° North 464 534 27,200 1,099 Climbing FlightAware ADS-B
Wed 02:43:30 PM -32.1816 -71.4153 349° North 465 535 27,800 1,385 Climbing FlightAware ADS-B
Wed 02:44:18 PM -32.0879 -71.4369 349° North 458 527 29,000 1,295 Climbing FlightAware ADS-B
Wed 02:44:58 PM -31.9987 -71.4577 349° North 458 527 29,700 1,099 Climbing FlightAware ADS-B
Wed 02:45:29 PM -31.9376 -71.4718 349° North 456 525 30,300 1,143 Climbing FlightAware ADS-B
Wed 02:46:01 PM -31.8677 -71.4879 349° North 453 521 30,900 1,043 Climbing FlightAware ADS-B
Wed 02:46:38 PM -31.7906 -71.5056 349° North 454 522 31,500 857 Climbing FlightAware ADS-B
Wed 02:47:11 PM -31.7288 -71.5197 349° North 458 527 31,900 769 Climbing FlightAware ADS-B
Wed 02:47:56 PM -31.6297 -71.5426 349° North 461 531 32,500 800 Climbing FlightAware ADS-B
Wed 02:50:00 PM -31.4249 -71.6110 342° North  Level Estimated
Wed 02:51:00 PM -31.3258 -71.6440 343° North  Level Estimated
Wed 02:52:00 PM -31.2276 -71.6076 18° North  Level FlightAware Approximate
Wed 02:53:00 PM -31.1286 -71.6409 346° North  Level Estimated
Wed 02:54:00 PM -31.0256 -71.6377 North  Level FlightAware Approximate
Wed 02:55:00 PM -30.9226 -71.6345 North  Level FlightAware Approximate
Wed 02:56:00 PM -30.8237 -71.6680 344° North  Level Estimated
Wed 02:57:00 PM -30.7247 -71.7013 344° North  Level FlightAware Approximate
Wed 02:58:00 PM -30.6257 -71.7346 344° North  Level FlightAware Approximate
Wed 02:59:00 PM -30.5268 -71.7677 344° North  Level FlightAware Approximate
Wed 03:00:00 PM -30.4278 -71.8009 344° North  Level FlightAware Approximate
Wed 03:01:00 PM -30.3288 -71.8339 344° North  Level FlightAware Approximate
Wed 03:02:00 PM -30.2298 -71.8669 344° North  Level FlightAware Approximate
Wed 03:03:00 PM -30.1308 -71.8998 344° North  Level FlightAware Approximate
Wed 03:04:00 PM -30.0317 -71.9326 344° North  Level FlightAware Approximate
Wed 03:05:00 PM -29.9327 -71.9654 344° North  Level FlightAware Approximate
Wed 03:06:00 PM -29.8337 -71.9982 344° North  Level FlightAware Approximate
Wed 03:07:00 PM -29.7346 -72.0308 344° North  Level FlightAware Approximate
Wed 03:08:00 PM -29.6356 -72.0634 344° North  Level FlightAware Approximate
Wed 03:09:00 PM -29.5365 -72.0959 344° North  Level FlightAware Approximate
Wed 03:10:00 PM -29.4375 -72.1284 344° North  Level FlightAware Approximate
Wed 03:11:00 PM -29.3384 -72.1608 344° North  Level FlightAware Approximate
Wed 03:12:00 PM -29.2393 -72.1931 344° North  Level FlightAware Approximate
Wed 03:13:00 PM -29.1402 -72.2254 344° North  Level FlightAware Approximate
Wed 03:14:00 PM -29.0411 -72.2576 344° North  Level FlightAware Approximate
Wed 03:15:00 PM -28.9420 -72.2897 344° North  Level FlightAware Approximate
Wed 03:16:00 PM -28.8429 -72.3218 344° North  Level FlightAware Approximate
Wed 03:17:00 PM -28.7437 -72.3538 344° North  Level FlightAware Approximate
Wed 03:18:00 PM -28.6446 -72.3858 344° North  Level FlightAware Approximate
Wed 03:19:00 PM -28.5455 -72.4177 344° North  Level FlightAware Approximate
Wed 03:20:00 PM -28.4463 -72.4496 344° North  Level FlightAware Approximate
Wed 03:21:00 PM -28.3472 -72.4813 344° North  Level FlightAware Approximate
Wed 03:22:00 PM -28.2480 -72.5131 344° North  Level FlightAware Approximate
Wed 03:23:00 PM -28.1489 -72.5447 344° North  Level FlightAware Approximate
Wed 03:24:00 PM -28.0497 -72.5763 344° North  Level FlightAware Approximate
Wed 03:25:00 PM -27.9505 -72.6079 344° North  Level FlightAware Approximate
Wed 03:26:00 PM -27.8513 -72.6394 344° North  Level FlightAware Approximate
Wed 03:27:00 PM -27.7521 -72.6708 344° North  Level FlightAware Approximate
Wed 03:28:00 PM -27.6529 -72.7022 344° North  Level FlightAware Approximate
Wed 03:29:00 PM -27.5537 -72.7335 344° North  Level FlightAware Approximate
Wed 03:30:00 PM -27.4545 -72.7648 344° North  Level FlightAware Approximate
Wed 03:31:00 PM -27.3553 -72.7960 344° North  Level FlightAware Approximate
Wed 03:32:00 PM -27.2560 -72.8271 344° North  Level FlightAware Approximate
Wed 03:33:00 PM -27.1568 -72.8582 344° North  Level FlightAware Approximate
Wed 03:34:00 PM -27.0576 -72.8893 344° North  Level FlightAware Approximate
Wed 03:35:00 PM -26.9583 -72.9203 344° North  Level FlightAware Approximate
Wed 03:36:00 PM -26.8590 -72.9512 344° North  Level FlightAware Approximate
Wed 03:37:00 PM -26.7598 -72.9821 344° North  Level FlightAware Approximate
Wed 03:38:00 PM -26.6605 -73.0129 344° North  Level FlightAware Approximate
Wed 03:39:00 PM -26.5612 -73.0437 345° North  Level FlightAware Approximate
Wed 03:40:00 PM -26.4619 -73.0744 345° North  Level FlightAware Approximate
Wed 03:41:00 PM -26.3626 -73.1050 345° North  Level FlightAware Approximate
Wed 03:42:00 PM -26.2633 -73.1357 345° North  Level FlightAware Approximate
Wed 03:43:00 PM -26.1640 -73.1662 345° North  Level FlightAware Approximate
Wed 03:44:00 PM -26.0647 -73.1967 345° North  Level FlightAware Approximate
Wed 03:45:00 PM -25.9654 -73.2272 345° North  Level FlightAware Approximate
Wed 03:46:00 PM -25.8661 -73.2576 345° North  Level FlightAware Approximate
Wed 03:47:00 PM -25.7668 -73.2879 345° North  Level FlightAware Approximate
Wed 03:48:00 PM -25.6674 -73.3182 345° North  Level FlightAware Approximate
Wed 03:49:00 PM -25.5681 -73.3485 345° North  Level FlightAware Approximate
Wed 03:50:00 PM -25.4687 -73.3787 345° North  Level FlightAware Approximate
Wed 03:51:00 PM -25.3694 -73.4088 345° North  Level FlightAware Approximate
Wed 03:52:00 PM -25.2700 -73.4389 345° North  Level FlightAware Approximate
Wed 03:53:00 PM -25.1707 -73.4690 345° North  Level FlightAware Approximate
Wed 03:54:00 PM -25.0713 -73.4990 345° North  Level FlightAware Approximate
Wed 03:55:00 PM -24.9719 -73.5289 345° North  Level FlightAware Approximate
Wed 03:56:00 PM -24.8725 -73.5588 345° North  Level FlightAware Approximate
Wed 03:57:00 PM -24.7731 -73.5887 345° North  Level FlightAware Approximate
Wed 03:58:00 PM -24.6737 -73.6185 345° North  Level FlightAware Approximate
Wed 03:59:00 PM -24.5743 -73.6483 345° North  Level FlightAware Approximate
Wed 04:00:00 PM -24.4749 -73.6780 345° North  Level FlightAware Approximate
Wed 04:01:00 PM -24.3755 -73.7077 345° North  Level FlightAware Approximate
Wed 04:02:00 PM -24.2761 -73.7373 345° North  Level FlightAware Approximate
Wed 04:03:00 PM -24.1767 -73.7669 345° North  Level FlightAware Approximate
Wed 04:04:00 PM -24.0772 -73.7964 345° North  Level FlightAware Approximate
Wed 04:05:00 PM -23.9778 -73.8259 345° North  Level FlightAware Approximate
Wed 04:06:00 PM -23.8783 -73.8553 345° North  Level FlightAware Approximate
Wed 04:07:00 PM -23.7789 -73.8847 345° North  Level FlightAware Approximate
Wed 04:08:00 PM -23.6794 -73.9140 345° North  Level FlightAware Approximate
Wed 04:09:00 PM -23.5800 -73.9434 345° North  Level FlightAware Approximate
Wed 04:10:00 PM -23.4805 -73.9726 345° North  Level FlightAware Approximate
Wed 04:11:00 PM -23.3810 -74.0018 345° North  Level FlightAware Approximate
Wed 04:12:00 PM -23.2816 -74.0310 345° North  Level FlightAware Approximate
Wed 04:13:00 PM -23.1821 -74.0601 345° North  Level FlightAware Approximate
Wed 04:14:00 PM -23.0826 -74.0892 345° North  Level FlightAware Approximate
Wed 04:15:00 PM -22.9831 -74.1182 345° North  Level FlightAware Approximate
Wed 04:16:00 PM -22.8836 -74.1472 345° North  Level FlightAware Approximate
Wed 04:17:00 PM -22.7841 -74.1762 345° North  Level FlightAware Approximate
Wed 04:18:00 PM -22.6846 -74.2051 345° North  Level FlightAware Approximate
Wed 04:19:00 PM -22.5851 -74.2340 345° North  Level FlightAware Approximate
Wed 04:20:00 PM -22.4856 -74.2628 345° North  Level FlightAware Approximate
Wed 04:21:00 PM -22.3860 -74.2916 345° North  Level FlightAware Approximate
Wed 04:22:00 PM -22.2865 -74.3204 345° North  Level FlightAware Approximate
Wed 04:23:00 PM -22.1870 -74.3491 345° North  Level FlightAware Approximate
Wed 04:24:00 PM -22.0875 -74.3777 345° North  Level FlightAware Approximate
Wed 04:25:00 PM -21.9879 -74.4064 345° North  Level FlightAware Approximate
Wed 04:26:00 PM -21.8883 -74.4350 345° North  Level FlightAware Approximate
Wed 04:27:00 PM -21.7888 -74.4635 345° North  Level FlightAware Approximate
Wed 04:28:00 PM -21.6892 -74.4920 345° North  Level FlightAware Approximate
Wed 04:29:00 PM -21.5897 -74.5205 345° North  Level FlightAware Approximate
Wed 04:30:00 PM -21.4901 -74.5489 345° North  Level FlightAware Approximate
Wed 04:31:00 PM -21.3905 -74.5773 345° North  Level FlightAware Approximate
Wed 04:32:00 PM -21.2910 -74.6056 345° North  Level FlightAware Approximate
Wed 04:33:00 PM -21.1914 -74.6339 345° North  Level FlightAware Approximate
Wed 04:34:00 PM -21.0918 -74.6622 345° North  Level FlightAware Approximate
Wed 04:35:00 PM -20.9922 -74.6905 345° North  Level FlightAware Approximate
Wed 04:36:00 PM -20.8926 -74.7187 345° North  Level FlightAware Approximate
Wed 04:37:00 PM -20.7930 -74.7468 345° North  Level FlightAware Approximate
Wed 04:38:00 PM -20.6934 -74.7749 345° North  Level FlightAware Approximate
Wed 04:39:00 PM -20.5938 -74.8030 345° North  Level FlightAware Approximate
Wed 04:40:00 PM -20.4942 -74.8311 345° North  Level FlightAware Approximate
Wed 04:41:00 PM -20.3946 -74.8591 345° North  Level FlightAware Approximate
Wed 04:42:00 PM -20.2949 -74.8871 345° North  Level FlightAware Approximate
Wed 04:43:00 PM -20.1953 -74.9150 345° North  Level FlightAware Approximate
Wed 04:44:00 PM -20.0957 -74.9429 345° North  Level FlightAware Approximate
Wed 04:45:00 PM -19.9960 -74.9708 345° North  Level FlightAware Approximate
Wed 04:46:00 PM -19.8964 -74.9986 345° North  Level FlightAware Approximate
Wed 04:47:00 PM -19.7967 -75.0264 345° North  Level FlightAware Approximate
Wed 04:48:00 PM -19.6971 -75.0542 345° North  Level FlightAware Approximate
Wed 04:49:00 PM -19.5974 -75.0819 345° North  Level FlightAware Approximate
Wed 04:50:00 PM -19.4978 -75.1096 345° North  Level FlightAware Approximate
Wed 04:51:00 PM -19.3981 -75.1373 345° North  Level FlightAware Approximate
Wed 04:52:00 PM -19.2985 -75.1649 345° North  Level FlightAware Approximate
Wed 04:53:00 PM -19.1988 -75.1925 345° North  Level FlightAware Approximate
Wed 04:54:00 PM -19.0991 -75.2201 345° North  Level FlightAware Approximate
Wed 04:55:00 PM -18.9994 -75.2476 345° North  Level FlightAware Approximate
Wed 04:56:00 PM -18.8997 -75.2751 345° North  Level FlightAware Approximate
Wed 04:57:00 PM -18.8001 -75.3026 345° North  Level FlightAware Approximate
Wed 04:58:00 PM -18.7004 -75.3300 345° North  Level FlightAware Approximate
Wed 04:59:00 PM -18.6007 -75.3574 345° North  Level FlightAware Approximate
Wed 05:00:00 PM -18.5010 -75.3847 345° North  Level FlightAware Approximate
Wed 05:01:00 PM -18.4013 -75.4121 345° North  Level FlightAware Approximate
Wed 05:02:00 PM -18.3016 -75.4394 345° North  Level FlightAware Approximate
Wed 05:03:00 PM -18.2019 -75.4667 345° North  Level FlightAware Approximate
Wed 05:04:00 PM -18.1021 -75.4939 345° North  Level FlightAware Approximate
Wed 05:05:00 PM -18.0024 -75.5211 345° North  Level FlightAware Approximate
Wed 05:06:00 PM -17.9027 -75.5483 345° North  Level FlightAware Approximate
Wed 05:07:00 PM -17.8030 -75.5754 345° North  Level FlightAware Approximate
Wed 05:08:00 PM -17.7032 -75.6025 345° North  Level FlightAware Approximate
Wed 05:09:00 PM -17.6035 -75.6296 345° North  Level FlightAware Approximate
Wed 05:10:00 PM -17.5038 -75.6567 345° North  Level FlightAware Approximate
Wed 05:11:00 PM -17.4040 -75.6837 346° North  Level FlightAware Approximate
Wed 05:12:00 PM -17.3043 -75.7107 346° North  Level FlightAware Approximate
Wed 05:13:00 PM -17.2045 -75.7377 346° North  Level FlightAware Approximate
Wed 05:14:00 PM -17.1048 -75.7646 346° North  Level FlightAware Approximate
Wed 05:15:00 PM -17.0050 -75.7915 346° North  Level FlightAware Approximate
Wed 05:16:00 PM -16.9053 -75.8184 346° North  Level FlightAware Approximate
Wed 05:17:00 PM -16.8055 -75.8453 346° North  Level FlightAware Approximate
Wed 05:18:00 PM -16.7057 -75.8721 346° North  Level FlightAware Approximate
Wed 05:19:00 PM -16.6060 -75.8989 346° North  Level FlightAware Approximate
Wed 05:20:00 PM -16.5062 -75.9257 346° North  Level FlightAware Approximate
Wed 05:21:00 PM -16.4064 -75.9524 346° North  Level FlightAware Approximate
Wed 05:22:00 PM -16.3067 -75.9791 346° North  Level FlightAware Approximate
Wed 05:23:00 PM -16.2069 -76.0058 346° North  Level FlightAware Approximate
Wed 05:24:00 PM -16.1071 -76.0325 346° North  Level FlightAware Approximate
Wed 05:25:00 PM -16.0073 -76.0591 346° North  Level FlightAware Approximate
Wed 05:26:00 PM -15.9075 -76.0857 346° North  Level FlightAware Approximate
Wed 05:27:00 PM -15.8077 -76.1123 346° North  Level FlightAware Approximate
Wed 05:28:00 PM -15.7079 -76.1388 346° North  Level FlightAware Approximate
Wed 05:29:00 PM -15.6081 -76.1654 346° North  Level FlightAware Approximate
Wed 05:30:00 PM -15.5083 -76.1919 346° North  Level FlightAware Approximate
Wed 05:31:00 PM -15.4085 -76.2183 346° North  Level FlightAware Approximate
Wed 05:32:00 PM -15.3087 -76.2448 346° North  Level FlightAware Approximate
Wed 05:33:00 PM -15.2089 -76.2712 346° North  Level FlightAware Approximate
Wed 05:34:00 PM -15.1090 -76.2976 346° North  Level FlightAware Approximate
Wed 05:35:00 PM -15.0092 -76.3240 346° North  Level FlightAware Approximate
Wed 05:36:00 PM -14.9094 -76.3503 346° North  Level FlightAware Approximate
Wed 05:37:00 PM -14.8096 -76.3767 346° North  Level FlightAware Approximate
Wed 05:38:00 PM -14.7097 -76.4030 346° North  Level FlightAware Approximate
Wed 05:39:00 PM -14.6099 -76.4293 346° North  Level FlightAware Approximate
Wed 05:40:00 PM -14.5101 -76.4555 346° North  Level FlightAware Approximate
Wed 05:41:00 PM -14.4102 -76.4817 346° North  Level FlightAware Approximate
Wed 05:42:00 PM -14.3104 -76.5079 346° North  Level FlightAware Approximate
Wed 05:43:00 PM -14.2105 -76.5341 346° North  Level FlightAware Approximate
Wed 05:44:00 PM -14.1108 -76.5608 346° North  Level Estimated
Wed 05:45:00 PM -14.0106 -76.5855 347° North  Level FlightAware Approximate
Wed 05:46:00 PM -13.9104 -76.6102 347° North  Level FlightAware Approximate
Wed 05:47:00 PM -13.8108 -76.6370 342° North  Level Estimated
Wed 05:48:00 PM -13.7111 -76.6638 344° North  Level Estimated
Wed 05:49:00 PM -13.6118 -76.6921 345° North  Level FlightAware Approximate
Wed 05:50:00 PM -13.5125 -76.7203 345° North  Level FlightAware Approximate
Wed 05:51:00 PM -13.4128 -76.7468 348° North  Level Estimated
Wed 05:52:00 PM -13.3117 -76.7674 349° North  Level FlightAware Approximate
Wed 05:53:00 PM -13.2121 -76.7943 346° North  Level Estimated
Wed 05:54:00 PM -13.1119 -76.8191 346° North  Level FlightAware Approximate
Wed 05:55:00 PM -13.0117 -76.8438 346° North  Level FlightAware Approximate
Wed 05:56:00 PM -12.9116 -76.8684 346° North  Level FlightAware Approximate
Wed 05:57:00 PM -12.8114 -76.8931 347° North  Level FlightAware Approximate
Wed 05:58:00 PM -12.7120 -76.9210 344° North  Level Estimated
Wed 05:59:00 PM -12.6127 -76.9489 346° North  Level Estimated
Wed 06:00:00 PM -12.5128 -76.9749 346° North  Level FlightAware Approximate
Wed 06:01:00 PM -12.4136 -77.0032 344° North  Level Estimated
Wed 06:02:00 PM -12.3144 -77.0316 344° North  Level FlightAware Approximate
Wed 06:03:00 PM -12.2151 -77.0597 349° North  Level Estimated
Wed 06:04:00 PM -12.1158 -77.0878 349° North  Level Estimated
Wed 06:05:00 PM -12.0167 -77.1167 334° Northwest  Level FlightAware Approximate
Wed 06:06:00 PM -12.0219 -77.1143 334° Northwest  Level Estimated
Wed 06:07:00 PM -12.0167 -77.1167 334° Northwest  Level FlightAware Approximate
Wed 06:08:00 PM -12.0219 -77.1143 334° Northwest  Level Estimated
Wed 06:09:00 PM -12.0167 -77.1167 334° Northwest  Level FlightAware Approximate
Wed 06:10:00 PM -12.0219 -77.1143 334° Northwest  Level Estimated
Wed 06:11:00 PM -12.0167 -77.1167 334° Northwest  Level FlightAware Approximate
Wed 06:12:00 PM -12.0219 -77.1143 334° Northwest  Level Estimated
Wed 06:13:00 PM -12.0167 -77.1167 334° Northwest  Level FlightAware Approximate
Wed 06:14:00 PM -12.0219 -77.1143 334° Northwest  Level Estimated
Wed 06:15:00 PM -12.0167 -77.1167 334° Northwest  Level FlightAware Approximate
Wed 06:16:00 PM -12.0219 -77.1143 334° Northwest  Level Estimated
Wed 06:17:00 PM -12.0167 -77.1167 334° Northwest  Level FlightAware Approximate
Wed 06:18:00 PM -12.0219 -77.1143 334° Northwest  Level Estimated

Login

Don't have an account? Register now (free) for customized features, flight alerts, and more!